Time,TemperatureF,DewpointF,PressureIn,WindDirection,WindDirectionDegrees,WindSpeedMPH,WindSpeedGustMPH,Humidity,HourlyPrecipIn,Conditions,Clouds,dailyrainin,SoftwareType,DateUTC
2013-10-18 00:05:00,67.8,67.8,29.88,ENE,69,0.0,0.0,100,0.00,CLR,,0.00,WeatherDisplay:10.37,2013-10-18 04:05:00,
2013-10-18 00:10:00,67.8,67.8,29.88,ENE,69,0.0,0.0,100,0.00,CLR,,0.00,WeatherDisplay:10.37,2013-10-18 04:10:00,
2013-10-18 00:15:00,67.8,67.8,29.88,ENE,69,0.0,0.0,100,0.00,CLR,,0.00,WeatherDisplay:10.37,2013-10-18 04:15:00,
2013-10-18 00:20:00,67.6,67.6,29.88,ENE,69,0.0,0.0,100,0.00,CLR,,0.00,WeatherDisplay:10.37,2013-10-18 04:20:00,
2013-10-18 00:25:00,67.6,67.6,29.88,ENE,69,0.0,0.0,100,0.00,CLR,,0.00,WeatherDisplay:10.37,2013-10-18 04:25:00,
2013-10-18 00:30:00,67.6,67.6,29.88,ENE,69,0.0,0.0,100,0.00,CLR,,0.00,WeatherDisplay:10.37,2013-10-18 04:30:00,
2013-10-18 00:35:00,67.6,67.6,29.88,ENE,69,0.0,0.0,100,0.00,CLR,,0.00,WeatherDisplay:10.37,2013-10-18 04:35:00,
2013-10-18 00:40:00,67.5,67.5,29.88,ENE,69,0.0,0.0,100,0.00,CLR,,0.00,WeatherDisplay:10.37,2013-10-18 04:40:00,
2013-10-18 00:45:00,67.5,67.5,29.88,ENE,69,0.0,0.0,100,0.00,CLR,,0.00,WeatherDisplay:10.37,2013-10-18 04:45:00,
2013-10-18 00:50:00,67.3,67.3,29.88,ENE,69,0.0,0.0,100,0.00,CLR,,0.00,WeatherDisplay:10.37,2013-10-18 04:50:00,
2013-10-18 00:55:00,67.1,67.1,29.88,ENE,69,0.0,0.0,100,0.00,CLR,,0.00,WeatherDisplay:10.37,2013-10-18 04:55:00,
2013-10-18 01:00:00,67.1,67.1,29.88,ENE,69,0.0,0.0,100,0.00,CLR,,0.00,WeatherDisplay:10.37,2013-10-18 05:00:00,
2013-10-18 01:05:00,66.9,66.9,29.88,ENE,69,0.0,0.0,100,0.00,CLR,,0.00,WeatherDisplay:10.37,2013-10-18 05:05:00,
2013-10-18 01:10:00,66.9,66.9,29.88,ENE,69,0.0,0.0,100,0.00,CLR,,0.00,WeatherDisplay:10.37,2013-10-18 05:10:00,
2013-10-18 01:15:00,66.9,66.9,29.88,ENE,69,0.0,0.0,100,0.00,CLR,,0.00,WeatherDisplay:10.37,2013-10-18 05:15:00,
2013-10-18 01:20:00,66.9,66.9,29.88,ENE,69,0.0,0.0,100,0.00,CLR,,0.00,WeatherDisplay:10.37,2013-10-18 05:20:00,
2013-10-18 01:25:00,66.9,66.9,29.88,ENE,69,0.0,0.0,100,0.00,CLR,,0.00,WeatherDisplay:10.37,2013-10-18 05:25:00,
2013-10-18 01:30:00,66.9,66.9,29.88,ENE,69,0.0,0.0,100,0.00,CLR,,0.00,WeatherDisplay:10.37,2013-10-18 05:30:00,
2013-10-18 01:35:00,66.9,66.9,29.88,ENE,69,0.0,0.0,100,0.00,CLR,,0.00,WeatherDisplay:10.37,2013-10-18 05:35:00,
2013-10-18 01:40:00,66.9,66.9,29.88,ENE,69,0.0,0.0,100,0.00,CLR,,0.00,WeatherDisplay:10.37,2013-10-18 05:40:00,
2013-10-18 01:45:00,66.9,66.9,29.88,ENE,69,0.0,0.0,100,0.00,CLR,,0.00,WeatherDisplay:10.37,2013-10-18 05:45:00,
2013-10-18 01:50:00,66.9,66.9,29.88,ENE,69,0.0,0.0,100,0.00,CLR,,0.00,WeatherDisplay:10.37,2013-10-18 05:50:00,
2013-10-18 01:55:00,66.9,66.9,29.88,ENE,69,0.0,0.0,100,0.00,CLR,,0.00,WeatherDisplay:10.37,2013-10-18 05:55:00,
2013-10-18 02:00:00,66.8,66.8,29.88,ENE,69,0.0,0.0,100,0.00,CLR,,0.00,WeatherDisplay:10.37,2013-10-18 06:00:00,
2013-10-18 02:05:00,66.7,66.7,29.88,ENE,69,0.0,0.0,100,0.00,CLR,,0.00,WeatherDisplay:10.37,2013-10-18 06:05:00,
2013-10-18 02:10:00,66.7,66.7,29.88,ENE,69,0.0,0.0,100,0.00,CLR,,0.00,WeatherDisplay:10.37,2013-10-18 06:10:00,
2013-10-18 02:15:00,66.6,66.6,29.88,ENE,69,0.0,0.0,100,0.00,CLR,,0.00,WeatherDisplay:10.37,2013-10-18 06:15:00,
2013-10-18 02:20:00,66.6,66.6,29.88,ENE,69,0.0,0.0,100,0.00,CLR,,0.00,WeatherDisplay:10.37,2013-10-18 06:20:00,
2013-10-18 02:25:00,66.6,66.6,29.88,ENE,69,0.0,0.0,100,0.00,CLR,,0.00,WeatherDisplay:10.37,2013-10-18 06:25:00,
2013-10-18 02:30:00,66.6,66.6,29.88,ENE,69,0.0,0.0,100,0.00,CLR,,0.00,WeatherDisplay:10.37,2013-10-18 06:30:00,
2013-10-18 02:35:00,66.4,66.4,29.88,ENE,69,0.0,0.0,100,0.00,CLR,,0.00,WeatherDisplay:10.37,2013-10-18 06:35:00,
2013-10-18 02:40:00,66.4,66.4,29.88,ENE,69,0.0,0.0,100,0.00,CLR,,0.00,WeatherDisplay:10.37,2013-10-18 06:40:00,
2013-10-18 02:45:00,66.4,66.4,29.88,ENE,69,0.0,0.0,100,0.00,CLR,,0.00,WeatherDisplay:10.37,2013-10-18 06:45:00,
2013-10-18 02:50:00,66.4,66.4,29.88,ENE,69,0.0,0.0,100,0.00,CLR,,0.00,WeatherDisplay:10.37,2013-10-18 06:50:00,
2013-10-18 02:55:00,66.4,66.4,29.88,ENE,69,0.0,0.0,100,0.00,CLR,,0.00,WeatherDisplay:10.37,2013-10-18 06:55:00,
2013-10-18 03:00:00,66.4,66.4,29.88,ENE,69,0.0,0.0,100,0.00,CLR,,0.00,WeatherDisplay:10.37,2013-10-18 07:00:00,
2013-10-18 03:05:00,66.4,66.4,29.88,ENE,69,0.0,0.0,100,0.00,CLR,,0.00,WeatherDisplay:10.37,2013-10-18 07:05:00,
2013-10-18 03:10:00,66.4,66.4,29.89,ENE,69,0.0,0.0,100,0.00,CLR,,0.00,WeatherDisplay:10.37,2013-10-18 07:10:00,
2013-10-18 03:20:00,66.4,66.4,29.91,ENE,69,0.0,0.0,100,0.00,CLR,,0.00,WeatherDisplay:10.37,2013-10-18 07:20:00,
2013-10-18 03:25:00,66.4,66.4,29.91,ENE,69,0.0,0.0,100,0.00,CLR,,0.00,WeatherDisplay:10.37,2013-10-18 07:25:00,
2013-10-18 03:30:00,66.4,66.4,29.91,ENE,69,0.0,0.0,100,0.00,CLR,,0.00,WeatherDisplay:10.37,2013-10-18 07:30:00,
2013-10-18 03:35:00,66.4,66.4,29.91,ENE,69,0.0,0.0,100,0.00,CLR,,0.00,WeatherDisplay:10.37,2013-10-18 07:35:00,
2013-10-18 03:40:00,66.2,66.2,29.91,ENE,69,0.0,0.0,100,0.00,CLR,,0.00,WeatherDisplay:10.37,2013-10-18 07:40:00,
2013-10-18 03:45:00,66.2,66.2,29.91,ENE,69,0.0,0.0,100,0.00,CLR,,0.00,WeatherDisplay:10.37,2013-10-18 07:45:00,
2013-10-18 03:50:00,66.2,66.2,29.91,ENE,69,0.0,0.0,100,0.00,CLR,,0.00,WeatherDisplay:10.37,2013-10-18 07:50:00,
2013-10-18 03:55:00,66.0,66.0,29.91,ENE,69,0.0,0.0,100,0.00,CLR,,0.00,WeatherDisplay:10.37,2013-10-18 07:55:00,
2013-10-18 04:00:00,66.0,66.0,29.91,ENE,69,0.0,0.0,100,0.00,CLR,,0.00,WeatherDisplay:10.37,2013-10-18 08:00:00,
2013-10-18 04:05:00,65.8,65.8,29.91,ENE,69,0.0,0.0,100,0.00,CLR,,0.00,WeatherDisplay:10.37,2013-10-18 08:05:00,
2013-10-18 04:10:00,65.7,65.7,29.91,ENE,69,0.0,0.0,100,0.00,CLR,,0.00,WeatherDisplay:10.37,2013-10-18 08:10:00,
2013-10-18 04:15:00,65.7,65.7,29.91,ENE,69,0.0,0.0,100,0.00,CLR,,0.00,WeatherDisplay:10.37,2013-10-18 08:15:00,
2013-10-18 04:20:00,65.5,65.5,29.91,ENE,69,0.0,0.0,100,0.00,CLR,,0.00,WeatherDisplay:10.37,2013-10-18 08:20:00,
2013-10-18 04:25:00,65.5,65.5,29.91,ENE,69,0.0,0.0,100,0.00,CLR,,0.00,WeatherDisplay:10.37,2013-10-18 08:25:00,
2013-10-18 04:30:00,65.5,65.5,29.91,ENE,69,0.0,0.0,100,0.00,CLR,,0.00,WeatherDisplay:10.37,2013-10-18 08:30:00,
2013-10-18 04:35:00,65.5,65.5,29.91,ENE,69,0.0,0.0,100,0.00,CLR,,0.00,WeatherDisplay:10.37,2013-10-18 08:35:00,
2013-10-18 04:40:00,65.5,65.5,29.91,ENE,69,0.0,0.0,100,0.00,CLR,,0.00,WeatherDisplay:10.37,2013-10-18 08:40:00,
2013-10-18 04:45:00,65.5,65.5,29.91,NE,52,0.0,0.0,100,0.00,CLR,,0.00,WeatherDisplay:10.37,2013-10-18 08:45:00,
2013-10-18 04:50:00,65.3,65.3,29.91,NNW,341,0.0,0.0,100,0.00,CLR,,0.00,WeatherDisplay:10.37,2013-10-18 08:50:00,
2013-10-18 04:55:00,65.1,65.1,29.91,NW,316,0.0,0.0,100,0.00,CLR,,0.00,WeatherDisplay:10.37,2013-10-18 08:55:00,
2013-10-18 05:00:00,65.1,65.1,29.91,NW,316,0.0,0.0,100,0.00,CLR,,0.00,WeatherDisplay:10.37,2013-10-18 09:00:00,
2013-10-18 05:05:00,64.9,64.9,29.91,NW,316,0.0,0.0,100,0.00,CLR,,0.00,WeatherDisplay:10.37,2013-10-18 09:05:00,
2013-10-18 05:10:00,64.8,64.8,29.91,NNW,342,0.0,3.0,100,0.00,CLR,,0.00,WeatherDisplay:10.37,2013-10-18 09:10:00,
2013-10-18 05:15:00,64.4,64.4,29.91,NNW,337,0.0,0.0,100,0.00,CLR,,0.00,WeatherDisplay:10.37,2013-10-18 09:15:00,
2013-10-18 05:20:00,64.0,64.0,29.91,NNW,340,0.0,0.0,100,0.00,CLR,,0.00,WeatherDisplay:10.37,2013-10-18 09:20:00,
2013-10-18 05:30:00,63.7,63.7,29.94,North,353,0.0,0.0,100,0.00,CLR,,0.00,WeatherDisplay:10.37,2013-10-18 09:30:00,
2013-10-18 05:40:00,63.5,63.5,29.94,NNE,17,0.0,0.0,100,0.00,CLR,,0.00,WeatherDisplay:10.37,2013-10-18 09:40:00,
2013-10-18 05:45:00,63.5,63.5,29.94,NNW,341,0.0,0.0,100,0.00,CLR,,0.00,WeatherDisplay:10.37,2013-10-18 09:45:00,
2013-10-18 05:50:00,63.5,63.5,29.94,NNE,24,0.0,0.0,100,0.00,CLR,,0.00,WeatherDisplay:10.37,2013-10-18 09:50:00,
2013-10-18 05:55:00,63.3,63.3,29.94,ENE,70,0.0,0.0,100,0.00,CLR,,0.00,WeatherDisplay:10.37,2013-10-18 09:55:00,
2013-10-18 06:00:00,63.1,63.1,29.94,ENE,70,0.0,0.0,100,0.00,CLR,,0.00,WeatherDisplay:10.37,2013-10-18 10:00:00,
2013-10-18 06:05:00,63.1,63.1,29.94,ENE,70,0.0,0.0,100,0.00,CLR,,0.00,WeatherDisplay:10.37,2013-10-18 10:05:00,
2013-10-18 06:10:00,63.0,63.0,29.94,ENE,70,0.0,0.0,100,0.00,CLR,,0.00,WeatherDisplay:10.37,2013-10-18 10:10:00,
2013-10-18 06:20:00,62.6,62.6,29.94,ENE,70,0.0,0.0,100,0.00,CLR,,0.00,WeatherDisplay:10.37,2013-10-18 10:20:00,
2013-10-18 06:25:00,62.6,62.6,29.94,ENE,70,0.0,0.0,100,0.00,CLR,,0.00,WeatherDisplay:10.37,2013-10-18 10:25:00,
2013-10-18 06:30:00,62.4,62.4,29.94,ENE,76,0.0,0.0,100,0.00,CLR,,0.00,WeatherDisplay:10.37,2013-10-18 10:30:00,
2013-10-18 06:40:00,62.1,62.1,29.94,ESE,109,0.0,0.0,100,0.00,CLR,,0.00,WeatherDisplay:10.37,2013-10-18 10:40:00,
2013-10-18 06:45:00,61.9,61.9,29.94,East,100,0.0,0.0,100,0.00,CLR,,0.00,WeatherDisplay:10.37,2013-10-18 10:45:00,
2013-10-18 06:50:00,61.7,61.7,29.94,ENE,77,0.0,0.0,100,0.00,CLR,,0.00,WeatherDisplay:10.37,2013-10-18 10:50:00,
2013-10-18 06:55:00,61.7,61.7,29.94,ENE,63,0.0,0.0,100,0.00,CLR,,0.00,WeatherDisplay:10.37,2013-10-18 10:55:00,
2013-10-18 07:00:00,61.5,61.5,29.94,ENE,59,0.0,0.0,100,0.00,CLR,,0.00,WeatherDisplay:10.37,2013-10-18 11:00:00,
2013-10-18 07:05:00,61.3,61.3,29.94,East,96,0.0,0.0,100,0.00,CLR,,0.00,WeatherDisplay:10.37,2013-10-18 11:05:00,
2013-10-18 07:10:00,61.2,61.2,29.94,ESE,119,0.0,0.0,100,0.00,CLR,,0.00,WeatherDisplay:10.37,2013-10-18 11:10:00,
2013-10-18 07:20:00,61.0,61.0,29.94,East,101,0.0,0.0,100,0.00,CLR,,0.00,WeatherDisplay:10.37,2013-10-18 11:20:00,
2013-10-18 07:25:00,60.7,60.7,29.94,ENE,62,0.0,0.0,100,0.00,CLR,,0.00,WeatherDisplay:10.37,2013-10-18 11:25:00,
2013-10-18 07:30:00,60.5,60.5,29.94,NNE,28,0.0,0.0,100,0.00,CLR,,0.00,WeatherDisplay:10.37,2013-10-18 11:30:00,
2013-10-18 07:35:00,60.3,60.3,29.94,NNW,331,0.0,0.0,100,0.00,CLR,,0.00,WeatherDisplay:10.37,2013-10-18 11:35:00,
2013-10-18 07:40:00,60.3,60.3,29.94,North,2,0.0,0.0,100,0.00,CLR,,0.00,WeatherDisplay:10.37,2013-10-18 11:40:00,
2013-10-18 07:45:00,60.1,60.1,29.97,ENE,61,0.0,0.0,100,0.00,CLR,,0.00,WeatherDisplay:10.37,2013-10-18 11:45:00,
2013-10-18 07:50:00,60.1,60.1,29.97,ENE,65,0.0,0.0,100,0.00,CLR,,0.00,WeatherDisplay:10.37,2013-10-18 11:50:00,
2013-10-18 07:55:00,59.9,59.9,29.97,NNE,27,0.0,0.0,100,0.00,CLR,,0.00,WeatherDisplay:10.37,2013-10-18 11:55:00,
2013-10-18 08:00:00,59.9,59.9,29.97,ENE,68,0.0,0.0,100,0.00,CLR,,0.00,WeatherDisplay:10.37,2013-10-18 12:00:00,
2013-10-18 08:05:00,59.7,59.7,29.97,East,94,0.0,0.0,100,0.00,CLR,,0.00,WeatherDisplay:10.37,2013-10-18 12:05:00,
2013-10-18 08:10:00,59.7,59.7,29.97,East,101,0.0,0.0,100,0.00,CLR,,0.00,WeatherDisplay:10.37,2013-10-18 12:10:00,
2013-10-18 08:15:00,59.7,59.7,29.97,ESE,106,0.0,0.0,100,0.00,CLR,,0.00,WeatherDisplay:10.37,2013-10-18 12:15:00,
2013-10-18 08:20:00,59.7,59.7,29.97,East,88,0.0,0.0,100,0.00,CLR,,0.00,WeatherDisplay:10.37,2013-10-18 12:20:00,
2013-10-18 08:25:00,59.7,59.7,29.97,ENE,60,0.0,0.0,100,0.00,CLR,,0.00,WeatherDisplay:10.37,2013-10-18 12:25:00,
2013-10-18 08:30:00,59.7,59.7,30.00,East,81,0.0,0.0,100,0.00,CLR,,0.00,WeatherDisplay:10.37,2013-10-18 12:30:00,
2013-10-18 08:35:00,59.7,59.7,30.00,ENE,73,0.0,6.0,100,0.00,CLR,,0.00,WeatherDisplay:10.37,2013-10-18 12:35:00,
2013-10-18 08:40:00,59.7,59.7,30.00,ENE,77,0.0,0.0,100,0.00,CLR,,0.00,WeatherDisplay:10.37,2013-10-18 12:40:00,
2013-10-18 08:45:00,59.7,59.7,30.00,East,93,0.0,0.0,100,0.00,CLR,,0.00,WeatherDisplay:10.37,2013-10-18 12:45:00,
2013-10-18 08:50:00,59.7,59.7,30.00,ENE,76,0.0,0.0,100,0.00,CLR,,0.00,WeatherDisplay:10.37,2013-10-18 12:50:00,
2013-10-18 08:55:00,59.7,59.7,30.00,ENE,60,0.0,4.0,100,0.00,CLR,,0.00,WeatherDisplay:10.37,2013-10-18 12:55:00,
2013-10-18 09:00:00,59.9,59.9,30.00,NE,41,0.0,0.0,100,0.00,CLR,,0.00,WeatherDisplay:10.37,2013-10-18 13:00:00,
2013-10-18 09:05:00,59.9,59.0,30.00,NE,46,0.0,3.0,97,0.00,CLR,,0.00,WeatherDisplay:10.37,2013-10-18 13:05:00,
2013-10-18 09:10:00,60.1,59.2,30.00,NE,52,0.0,0.0,97,0.00,CLR,,0.00,WeatherDisplay:10.37,2013-10-18 13:10:00,
2013-10-18 09:15:00,60.3,59.4,30.00,NE,37,0.0,3.0,97,0.00,CLR,,0.00,WeatherDisplay:10.37,2013-10-18 13:15:00,
2013-10-18 09:20:00,60.4,59.6,30.00,NE,35,0.0,6.0,97,0.00,CLR,,0.00,WeatherDisplay:10.37,2013-10-18 13:20:00,
2013-10-18 09:25:00,60.6,59.5,30.00,NE,51,0.0,3.0,96,0.00,CLR,,0.00,WeatherDisplay:10.37,2013-10-18 13:25:00,
2013-10-18 09:30:00,60.9,59.8,30.00,NNE,31,0.0,5.0,96,0.00,CLR,,0.00,WeatherDisplay:10.37,2013-10-18 13:30:00,
2013-10-18 09:35:00,61.2,59.7,30.00,North,6,0.0,5.0,95,0.00,CLR,,0.00,WeatherDisplay:10.37,2013-10-18 13:35:00,
2013-10-18 09:40:00,61.3,59.9,30.00,NNW,346,0.0,5.0,95,0.00,CLR,,0.00,WeatherDisplay:10.37,2013-10-18 13:40:00,
2013-10-18 09:50:00,61.9,59.5,30.00,NE,55,0.0,5.0,92,0.00,CLR,,0.00,WeatherDisplay:10.37,2013-10-18 13:50:00,
2013-10-18 09:55:00,62.1,59.4,30.00,ENE,61,0.0,5.0,91,0.00,CLR,,0.00,WeatherDisplay:10.37,2013-10-18 13:55:00,
2013-10-18 10:05:00,62.6,58.7,30.03,NNE,22,0.0,4.0,87,0.00,CLR,,0.00,WeatherDisplay:10.37,2013-10-18 14:05:00,
2013-10-18 10:10:00,62.8,58.9,30.03,ENE,65,0.0,0.0,87,0.00,CLR,,0.00,WeatherDisplay:10.37,2013-10-18 14:10:00,
2013-10-18 10:15:00,63.0,58.7,30.03,NE,44,0.0,4.0,86,0.00,CLR,,0.00,WeatherDisplay:10.37,2013-10-18 14:15:00,
2013-10-18 10:20:00,63.1,58.6,30.03,NE,54,0.0,4.0,85,0.00,CLR,,0.00,WeatherDisplay:10.37,2013-10-18 14:20:00,
2013-10-18 10:30:00,63.5,58.2,30.03,East,88,0.0,4.0,83,0.00,CLR,,0.00,WeatherDisplay:10.37,2013-10-18 14:30:00,
2013-10-18 10:35:00,63.8,58.2,30.03,ENE,71,0.0,3.0,82,0.00,CLR,,0.00,WeatherDisplay:10.37,2013-10-18 14:35:00,
2013-10-18 10:40:00,63.9,57.6,30.03,East,81,0.0,5.0,80,0.00,CLR,,0.00,WeatherDisplay:10.37,2013-10-18 14:40:00,
2013-10-18 10:45:00,63.9,57.2,30.03,ENE,74,0.0,0.0,79,0.00,CLR,,0.00,WeatherDisplay:10.37,2013-10-18 14:45:00,
2013-10-18 10:50:00,64.0,57.0,30.03,NE,55,0.0,4.0,78,0.00,CLR,,0.00,WeatherDisplay:10.37,2013-10-18 14:50:00,
2013-10-18 10:55:00,64.0,56.7,30.03,NE,38,0.0,4.0,77,0.00,CLR,,0.00,WeatherDisplay:10.37,2013-10-18 14:55:00,
2013-10-18 11:00:00,64.0,56.3,30.03,ENE,74,0.0,7.0,76,0.00,CLR,,0.00,WeatherDisplay:10.37,2013-10-18 15:00:00,
2013-10-18 11:05:00,64.2,56.1,30.03,East,86,0.0,5.0,75,0.00,CLR,,0.00,WeatherDisplay:10.37,2013-10-18 15:05:00,
2013-10-18 11:10:00,64.2,55.8,30.03,East,90,0.0,3.0,74,0.00,CLR,,0.00,WeatherDisplay:10.37,2013-10-18 15:10:00,
2013-10-18 11:15:00,64.4,55.6,30.03,East,89,0.0,7.0,73,0.00,CLR,,0.00,WeatherDisplay:10.37,2013-10-18 15:15:00,
2013-10-18 11:20:00,64.6,55.3,30.03,ENE,76,1.0,6.0,72,0.00,CLR,,0.00,WeatherDisplay:10.37,2013-10-18 15:20:00,
2013-10-18 11:30:00,64.8,54.7,30.03,ESE,113,0.0,5.0,70,0.00,CLR,,0.00,WeatherDisplay:10.37,2013-10-18 15:30:00,
2013-10-18 11:35:00,64.8,54.3,30.03,ESE,102,1.0,6.0,69,0.00,CLR,,0.00,WeatherDisplay:10.37,2013-10-18 15:35:00,
2013-10-18 11:40:00,64.9,54.4,30.03,NE,36,0.0,5.0,69,0.00,CLR,,0.00,WeatherDisplay:10.37,2013-10-18 15:40:00,
2013-10-18 11:45:00,65.1,54.3,30.03,ENE,63,0.0,5.0,68,0.00,CLR,,0.00,WeatherDisplay:10.37,2013-10-18 15:45:00,
2013-10-18 11:50:00,65.3,54.1,30.03,NE,55,0.0,0.0,67,0.00,CLR,,0.00,WeatherDisplay:10.37,2013-10-18 15:50:00,
2013-10-18 11:55:00,65.3,54.1,30.03,ENE,78,0.0,0.0,67,0.00,CLR,,0.00,WeatherDisplay:10.37,2013-10-18 15:55:00,
2013-10-18 12:00:00,65.5,53.8,30.03,ESE,104,1.0,7.0,66,0.00,CLR,,0.00,WeatherDisplay:10.37,2013-10-18 16:00:00,
2013-10-18 12:05:00,65.7,53.6,30.03,East,101,0.0,7.0,65,0.00,CLR,,0.00,WeatherDisplay:10.37,2013-10-18 16:05:00,
2013-10-18 12:10:00,65.7,53.1,30.03,ESE,103,0.0,6.0,64,0.00,CLR,,0.00,WeatherDisplay:10.37,2013-10-18 16:10:00,
2013-10-18 12:15:00,65.7,53.1,30.03,East,98,0.0,5.0,64,0.00,CLR,,0.00,WeatherDisplay:10.37,2013-10-18 16:15:00,
2013-10-18 12:20:00,65.8,52.9,30.03,East,83,0.0,7.0,63,0.00,CLR,,0.00,WeatherDisplay:10.37,2013-10-18 16:20:00,
2013-10-18 12:25:00,65.9,52.9,30.03,East,99,0.0,4.0,63,0.00,CLR,,0.00,WeatherDisplay:10.37,2013-10-18 16:25:00,
2013-10-18 12:30:00,66.0,53.1,30.00,ESE,123,0.0,0.0,63,0.00,CLR,,0.00,WeatherDisplay:10.37,2013-10-18 16:30:00,
2013-10-18 12:35:00,66.2,53.2,30.00,East,91,1.0,5.0,63,0.00,CLR,,0.00,WeatherDisplay:10.37,2013-10-18 16:35:00,
2013-10-18 12:40:00,66.4,53.4,30.00,NE,54,0.0,0.0,63,0.00,CLR,,0.00,WeatherDisplay:10.37,2013-10-18 16:40:00,
2013-10-18 12:45:00,66.5,53.1,30.00,ENE,67,0.0,5.0,62,0.00,CLR,,0.00,WeatherDisplay:10.37,2013-10-18 16:45:00,
2013-10-18 12:50:00,66.6,53.1,30.00,East,91,0.0,5.0,62,0.00,CLR,,0.00,WeatherDisplay:10.37,2013-10-18 16:50:00,
2013-10-18 12:55:00,66.7,53.3,30.00,East,92,2.0,7.0,62,0.00,CLR,,0.00,WeatherDisplay:10.37,2013-10-18 16:55:00,
2013-10-18 13:00:00,66.7,53.3,30.00,East,92,0.0,2.0,62,0.00,CLR,,0.00,WeatherDisplay:10.37,2013-10-18 17:00:00,
2013-10-18 13:05:00,66.7,53.3,30.00,East,90,0.0,0.0,62,0.00,CLR,,0.00,WeatherDisplay:10.37,2013-10-18 17:05:00,
2013-10-18 13:10:00,66.9,53.5,30.00,ENE,70,0.0,4.0,62,0.00,CLR,,0.00,WeatherDisplay:10.37,2013-10-18 17:10:00,
2013-10-18 13:15:00,67.1,53.2,30.00,NE,44,0.0,0.0,61,0.00,CLR,,0.00,WeatherDisplay:10.37,2013-10-18 17:15:00,
2013-10-18 13:20:00,67.1,53.2,30.00,NE,49,0.0,5.0,61,0.00,CLR,,0.00,WeatherDisplay:10.37,2013-10-18 17:20:00,
2013-10-18 13:25:00,67.3,53.4,30.00,ENE,60,0.0,3.0,61,0.00,CLR,,0.00,WeatherDisplay:10.37,2013-10-18 17:25:00,
2013-10-18 13:30:00,67.3,52.9,30.00,East,89,0.0,0.0,60,0.00,CLR,,0.00,WeatherDisplay:10.37,2013-10-18 17:30:00,
2013-10-18 13:35:00,67.6,53.2,30.00,East,94,0.0,0.0,60,0.00,CLR,,0.00,WeatherDisplay:10.37,2013-10-18 17:35:00,
2013-10-18 13:40:00,67.8,53.4,30.00,ESE,110,0.0,5.0,60,0.00,CLR,,0.00,WeatherDisplay:10.37,2013-10-18 17:40:00,
2013-10-18 13:45:00,68.0,53.6,30.00,ENE,72,0.0,6.0,60,0.00,CLR,,0.00,WeatherDisplay:10.37,2013-10-18 17:45:00,
2013-10-18 13:50:00,68.0,53.6,30.00,NE,55,0.0,0.0,60,0.00,CLR,,0.00,WeatherDisplay:10.37,2013-10-18 17:50:00,
2013-10-18 13:55:00,68.0,53.1,30.00,East,83,0.0,0.0,59,0.00,CLR,,0.00,WeatherDisplay:10.37,2013-10-18 17:55:00,
2013-10-18 14:00:00,67.8,53.0,29.97,East,83,0.0,5.0,59,0.00,CLR,,0.00,WeatherDisplay:10.37,2013-10-18 18:00:00,
2013-10-18 14:05:00,67.8,53.0,29.97,ENE,63,0.0,3.0,59,0.00,CLR,,0.00,WeatherDisplay:10.37,2013-10-18 18:05:00,
2013-10-18 14:10:00,67.6,52.8,29.97,ENE,78,0.0,0.0,59,0.00,CLR,,0.00,WeatherDisplay:10.37,2013-10-18 18:10:00,
2013-10-18 14:15:00,67.6,53.3,29.97,East,82,1.0,4.0,60,0.00,CLR,,0.00,WeatherDisplay:10.37,2013-10-18 18:15:00,
2013-10-18 14:20:00,67.6,53.3,29.97,East,85,0.0,5.0,60,0.00,CLR,,0.00,WeatherDisplay:10.37,2013-10-18 18:20:00,
2013-10-18 14:25:00,67.6,52.8,29.97,ESE,110,0.0,0.0,59,0.00,CLR,,0.00,WeatherDisplay:10.37,2013-10-18 18:25:00,
2013-10-18 14:30:00,67.6,52.8,29.97,SSE,148,0.0,0.0,59,0.00,CLR,,0.00,WeatherDisplay:10.37,2013-10-18 18:30:00,
2013-10-18 14:35:00,67.6,52.8,29.97,ESE,122,0.0,4.0,59,0.00,CLR,,0.00,WeatherDisplay:10.37,2013-10-18 18:35:00,
2013-10-18 14:40:00,67.6,52.8,29.97,ESE,114,0.0,3.0,59,0.00,CLR,,0.00,WeatherDisplay:10.37,2013-10-18 18:40:00,
2013-10-18 14:50:00,67.5,52.6,29.97,ESE,110,0.0,4.0,59,0.00,CLR,,0.00,WeatherDisplay:10.37,2013-10-18 18:50:00,
2013-10-18 14:55:00,67.3,52.5,29.97,SSE,155,0.0,4.0,59,0.00,CLR,,0.00,WeatherDisplay:10.37,2013-10-18 18:55:00,
2013-10-18 15:00:00,67.1,52.3,29.97,SE,124,0.0,0.0,59,0.00,CLR,,0.00,WeatherDisplay:10.37,2013-10-18 19:00:00,
2013-10-18 15:05:00,67.1,52.3,29.97,East,99,0.0,4.0,59,0.00,CLR,,0.00,WeatherDisplay:10.37,2013-10-18 19:05:00,
2013-10-18 15:10:00,67.0,52.2,29.97,East,99,0.0,4.0,59,0.00,CLR,,0.00,WeatherDisplay:10.37,2013-10-18 19:10:00,
2013-10-18 15:15:00,66.9,52.1,29.97,East,87,0.0,0.0,59,0.00,CLR,,0.00,WeatherDisplay:10.37,2013-10-18 19:15:00,
2013-10-18 15:20:00,67.1,52.3,29.97,East,84,0.0,0.0,59,0.00,CLR,,0.00,WeatherDisplay:10.37,2013-10-18 19:20:00,
2013-10-18 15:25:00,67.1,52.3,29.97,East,83,0.0,0.0,59,0.00,CLR,,0.00,WeatherDisplay:10.37,2013-10-18 19:25:00,
2013-10-18 15:30:00,67.3,52.5,29.97,East,94,0.0,4.0,59,0.00,CLR,,0.00,WeatherDisplay:10.37,2013-10-18 19:30:00,
2013-10-18 15:35:00,67.5,52.6,29.97,East,91,0.0,4.0,59,0.00,CLR,,0.00,WeatherDisplay:10.37,2013-10-18 19:35:00,
2013-10-18 15:40:00,67.6,52.8,29.97,East,80,1.0,5.0,59,0.00,CLR,,0.00,WeatherDisplay:10.37,2013-10-18 19:40:00,
2013-10-18 15:45:00,67.6,52.3,29.97,ENE,67,1.0,5.0,58,0.00,CLR,,0.00,WeatherDisplay:10.37,2013-10-18 19:45:00,
2013-10-18 15:50:00,67.6,52.3,29.97,East,81,0.0,4.0,58,0.00,CLR,,0.00,WeatherDisplay:10.37,2013-10-18 19:50:00,
2013-10-18 15:55:00,67.6,52.3,29.97,East,91,0.0,4.0,58,0.00,CLR,,0.00,WeatherDisplay:10.37,2013-10-18 19:55:00,
2013-10-18 16:00:00,67.8,52.5,29.97,ENE,63,0.0,2.0,58,0.00,CLR,,0.00,WeatherDisplay:10.37,2013-10-18 20:00:00,
2013-10-18 16:05:00,67.8,52.5,29.97,NE,53,0.0,0.0,58,0.00,CLR,,0.00,WeatherDisplay:10.37,2013-10-18 20:05:00,
2013-10-18 16:10:00,68.0,52.2,29.97,ENE,76,0.0,0.0,57,0.00,CLR,,0.00,WeatherDisplay:10.37,2013-10-18 20:10:00,
2013-10-18 16:20:00,68.0,52.2,29.97,East,79,0.0,0.0,57,0.00,CLR,,0.00,WeatherDisplay:10.37,2013-10-18 20:20:00,
2013-10-18 16:25:00,68.0,51.7,29.97,East,79,0.0,0.0,56,0.00,CLR,,0.00,WeatherDisplay:10.37,2013-10-18 20:25:00,
2013-10-18 16:30:00,67.8,51.5,29.97,East,87,0.0,0.0,56,0.00,CLR,,0.00,WeatherDisplay:10.37,2013-10-18 20:30:00,
2013-10-18 16:35:00,67.6,51.4,29.97,East,87,0.0,0.0,56,0.00,CLR,,0.00,WeatherDisplay:10.37,2013-10-18 20:35:00,
2013-10-18 16:40:00,67.6,51.9,29.97,East,96,0.0,0.0,57,0.00,CLR,,0.00,WeatherDisplay:10.37,2013-10-18 20:40:00,
2013-10-18 16:45:00,67.5,51.7,29.94,ESE,117,0.0,0.0,57,0.00,CLR,,0.00,WeatherDisplay:10.37,2013-10-18 20:45:00,
2013-10-18 16:50:00,67.5,51.7,29.94,ESE,106,0.0,0.0,57,0.00,CLR,,0.00,WeatherDisplay:10.37,2013-10-18 20:50:00,
2013-10-18 17:00:00,67.3,52.0,29.94,ESE,102,0.0,0.0,58,0.00,CLR,,0.00,WeatherDisplay:10.37,2013-10-18 21:00:00,
2013-10-18 17:05:00,67.1,52.3,29.94,East,99,0.0,0.0,59,0.00,CLR,,0.00,WeatherDisplay:10.37,2013-10-18 21:05:00,
2013-10-18 17:10:00,67.1,52.3,29.94,East,97,0.0,0.0,59,0.00,CLR,,0.00,WeatherDisplay:10.37,2013-10-18 21:10:00,
2013-10-18 17:15:00,67.1,52.3,29.94,East,97,0.0,0.0,59,0.00,CLR,,0.00,WeatherDisplay:10.37,2013-10-18 21:15:00,
2013-10-18 17:20:00,66.9,52.6,29.94,East,96,0.0,0.0,60,0.00,CLR,,0.00,WeatherDisplay:10.37,2013-10-18 21:20:00,
2013-10-18 17:25:00,66.9,52.6,29.94,East,95,0.0,0.0,60,0.00,CLR,,0.00,WeatherDisplay:10.37,2013-10-18 21:25:00,
2013-10-18 17:30:00,66.9,53.0,29.94,East,95,0.0,0.0,61,0.00,CLR,,0.00,WeatherDisplay:10.37,2013-10-18 21:30:00,
2013-10-18 17:35:00,66.7,52.9,29.94,East,95,0.0,0.0,61,0.00,CLR,,0.00,WeatherDisplay:10.37,2013-10-18 21:35:00,
2013-10-18 17:40:00,66.6,52.7,29.94,East,95,0.0,0.0,61,0.00,CLR,,0.00,WeatherDisplay:10.37,2013-10-18 21:40:00,
2013-10-18 17:45:00,66.6,53.1,29.97,East,95,0.0,0.0,62,0.00,CLR,,0.00,WeatherDisplay:10.37,2013-10-18 21:45:00,
2013-10-18 17:50:00,66.4,53.0,29.97,East,93,0.0,0.0,62,0.00,CLR,,0.00,WeatherDisplay:10.37,2013-10-18 21:50:00,
2013-10-18 17:55:00,66.4,53.0,29.97,East,85,0.0,0.0,62,0.00,CLR,,0.00,WeatherDisplay:10.37,2013-10-18 21:55:00,
2013-10-18 18:00:00,66.2,52.8,29.97,East,79,0.0,0.0,62,0.00,CLR,,0.00,WeatherDisplay:10.37,2013-10-18 22:00:00,
2013-10-18 18:05:00,66.0,53.0,29.97,East,79,0.0,0.0,63,0.00,CLR,,0.00,WeatherDisplay:10.37,2013-10-18 22:05:00,
2013-10-18 18:10:00,65.7,52.7,29.97,East,79,0.0,0.0,63,0.00,CLR,,0.00,WeatherDisplay:10.37,2013-10-18 22:10:00,
2013-10-18 18:15:00,65.3,52.8,29.97,East,79,0.0,0.0,64,0.00,CLR,,0.00,WeatherDisplay:10.37,2013-10-18 22:15:00,
2013-10-18 18:20:00,65.1,53.1,29.97,East,79,0.0,0.0,65,0.00,CLR,,0.00,WeatherDisplay:10.37,2013-10-18 22:20:00,
2013-10-18 18:25:00,64.8,52.7,29.97,East,79,0.0,0.0,65,0.00,CLR,,0.00,WeatherDisplay:10.37,2013-10-18 22:25:00,
2013-10-18 18:30:00,64.6,53.0,29.97,East,79,0.0,0.0,66,0.00,CLR,,0.00,WeatherDisplay:10.37,2013-10-18 22:30:00,
2013-10-18 18:40:00,64.0,52.9,29.97,East,79,0.0,0.0,67,0.00,CLR,,0.00,WeatherDisplay:10.37,2013-10-18 22:40:00,
2013-10-18 18:45:00,63.8,53.1,29.97,East,79,0.0,0.0,68,0.00,CLR,,0.00,WeatherDisplay:10.37,2013-10-18 22:45:00,
2013-10-18 18:50:00,63.5,53.1,29.97,East,79,0.0,0.0,69,0.00,CLR,,0.00,WeatherDisplay:10.37,2013-10-18 22:50:00,
2013-10-18 18:55:00,63.1,53.2,29.97,East,79,0.0,0.0,70,0.00,CLR,,0.00,WeatherDisplay:10.37,2013-10-18 22:55:00,
2013-10-18 19:00:00,63.0,53.4,29.97,East,79,0.0,0.0,71,0.00,CLR,,0.00,WeatherDisplay:10.37,2013-10-18 23:00:00,
2013-10-18 19:05:00,62.9,53.3,29.97,East,79,0.0,0.0,71,0.00,CLR,,0.00,WeatherDisplay:10.37,2013-10-18 23:05:00,
2013-10-18 19:10:00,62.8,53.6,29.97,East,79,0.0,0.0,72,0.00,CLR,,0.00,WeatherDisplay:10.37,2013-10-18 23:10:00,
2013-10-18 19:15:00,62.6,53.8,29.97,East,79,0.0,0.0,73,0.00,CLR,,0.00,WeatherDisplay:10.37,2013-10-18 23:15:00,
2013-10-18 19:20:00,62.4,53.6,29.97,East,79,0.0,0.0,73,0.00,CLR,,0.00,WeatherDisplay:10.37,2013-10-18 23:20:00,
2013-10-18 19:25:00,62.2,53.8,29.97,East,79,0.0,0.0,74,0.00,CLR,,0.00,WeatherDisplay:10.37,2013-10-18 23:25:00,
2013-10-18 19:30:00,62.1,53.7,29.97,East,79,0.0,0.0,74,0.00,CLR,,0.00,WeatherDisplay:10.37,2013-10-18 23:30:00,
2013-10-18 19:35:00,61.9,53.9,29.97,East,79,0.0,0.0,75,0.00,CLR,,0.00,WeatherDisplay:10.37,2013-10-18 23:35:00,
2013-10-18 19:40:00,61.7,54.1,29.97,East,79,0.0,0.0,76,0.00,CLR,,0.00,WeatherDisplay:10.37,2013-10-18 23:40:00,
2013-10-18 19:45:00,61.5,53.9,29.97,East,79,0.0,0.0,76,0.00,CLR,,0.00,WeatherDisplay:10.37,2013-10-18 23:45:00,
2013-10-18 19:50:00,61.3,54.1,29.97,East,79,0.0,0.0,77,0.00,CLR,,0.00,WeatherDisplay:10.37,2013-10-18 23:50:00,
2013-10-18 19:55:00,61.3,54.0,29.97,East,79,0.0,0.0,77,0.00,CLR,,0.00,WeatherDisplay:10.37,2013-10-18 23:55:00,
2013-10-18 20:00:00,61.2,54.2,29.97,East,79,0.0,0.0,78,0.00,CLR,,0.00,WeatherDisplay:10.37,2013-10-19 00:00:00,
2013-10-18 20:05:00,61.0,54.4,29.97,East,79,0.0,0.0,79,0.00,CLR,,0.00,WeatherDisplay:10.37,2013-10-19 00:05:00,
2013-10-18 20:10:00,61.0,54.4,29.97,East,79,0.0,0.0,79,0.00,CLR,,0.00,WeatherDisplay:10.37,2013-10-19 00:10:00,
2013-10-18 20:15:00,60.8,54.2,29.97,East,79,0.0,0.0,79,0.00,CLR,,0.00,WeatherDisplay:10.37,2013-10-19 00:15:00,
2013-10-18 20:20:00,60.6,54.4,29.97,East,79,0.0,0.0,80,0.00,CLR,,0.00,WeatherDisplay:10.37,2013-10-19 00:20:00,
2013-10-18 20:25:00,60.6,54.4,29.97,East,79,0.0,0.0,80,0.00,CLR,,0.00,WeatherDisplay:10.37,2013-10-19 00:25:00,
2013-10-18 20:30:00,60.4,54.2,29.97,East,79,0.0,0.0,80,0.00,CLR,,0.00,WeatherDisplay:10.37,2013-10-19 00:30:00,
2013-10-18 20:35:00,60.4,54.6,29.97,East,79,0.0,0.0,81,0.00,CLR,,0.00,WeatherDisplay:10.37,2013-10-19 00:35:00,
2013-10-18 20:40:00,60.3,54.4,29.97,East,79,0.0,0.0,81,0.00,CLR,,0.00,WeatherDisplay:10.37,2013-10-19 00:40:00,
2013-10-18 20:45:00,60.3,54.4,29.97,East,79,0.0,0.0,81,0.00,CLR,,0.00,WeatherDisplay:10.37,2013-10-19 00:45:00,
2013-10-18 20:50:00,60.3,54.7,29.97,East,79,0.0,0.0,82,0.00,CLR,,0.00,WeatherDisplay:10.37,2013-10-19 00:50:00,
2013-10-18 20:55:00,60.1,54.6,29.97,East,79,0.0,0.0,82,0.00,CLR,,0.00,WeatherDisplay:10.37,2013-10-19 00:55:00,
2013-10-18 21:00:00,60.1,54.6,29.97,East,79,0.0,0.0,82,0.00,CLR,,0.00,WeatherDisplay:10.37,2013-10-19 01:00:00,
2013-10-18 21:05:00,60.1,54.9,29.97,East,79,0.0,0.0,83,0.00,CLR,,0.00,WeatherDisplay:10.37,2013-10-19 01:05:00,
2013-10-18 21:10:00,60.1,54.9,29.97,East,79,0.0,0.0,83,0.00,CLR,,0.00,WeatherDisplay:10.37,2013-10-19 01:10:00,
2013-10-18 21:15:00,60.1,54.9,29.97,East,79,0.0,0.0,83,0.00,CLR,,0.00,WeatherDisplay:10.37,2013-10-19 01:15:00,
2013-10-18 21:20:00,60.1,54.9,29.97,East,79,0.0,0.0,83,0.00,CLR,,0.00,WeatherDisplay:10.37,2013-10-19 01:20:00,
2013-10-18 21:25:00,59.9,55.1,29.97,East,79,0.0,0.0,84,0.00,CLR,,0.00,WeatherDisplay:10.37,2013-10-19 01:25:00,
2013-10-18 21:30:00,59.9,55.1,29.97,East,79,0.0,0.0,84,0.00,CLR,,0.00,WeatherDisplay:10.37,2013-10-19 01:30:00,
2013-10-18 21:35:00,59.7,54.9,29.97,East,79,0.0,0.0,84,0.00,CLR,,0.00,WeatherDisplay:10.37,2013-10-19 01:35:00,
2013-10-18 21:40:00,59.6,54.7,29.97,East,79,0.0,0.0,84,0.00,CLR,,0.00,WeatherDisplay:10.37,2013-10-19 01:40:00,
2013-10-18 21:45:00,59.5,54.7,29.97,East,79,0.0,0.0,84,0.00,CLR,,0.00,WeatherDisplay:10.37,2013-10-19 01:45:00,
2013-10-18 21:50:00,59.4,54.8,29.97,East,79,0.0,0.0,85,0.00,CLR,,0.00,WeatherDisplay:10.37,2013-10-19 01:50:00,
2013-10-18 21:55:00,59.2,54.7,29.97,East,79,0.0,0.0,85,0.00,CLR,,0.00,WeatherDisplay:10.37,2013-10-19 01:55:00,
2013-10-18 22:00:00,59.1,54.6,29.97,East,79,0.0,0.0,85,0.00,CLR,,0.00,WeatherDisplay:10.37,2013-10-19 02:00:00,
2013-10-18 22:05:00,59.0,54.5,29.97,East,79,0.0,0.0,85,0.00,CLR,,0.00,WeatherDisplay:10.37,2013-10-19 02:05:00,
2013-10-18 22:10:00,58.8,54.3,29.97,East,79,0.0,0.0,85,0.00,CLR,,0.00,WeatherDisplay:10.37,2013-10-19 02:10:00,
2013-10-18 22:15:00,58.8,54.3,29.97,East,79,0.0,0.0,85,0.00,CLR,,0.00,WeatherDisplay:10.37,2013-10-19 02:15:00,
2013-10-18 22:20:00,58.7,54.5,29.97,East,79,0.0,0.0,86,0.00,CLR,,0.00,WeatherDisplay:10.37,2013-10-19 02:20:00,
2013-10-18 22:25:00,58.6,54.5,29.97,East,79,0.0,0.0,86,0.00,CLR,,0.00,WeatherDisplay:10.37,2013-10-19 02:25:00,
2013-10-18 22:30:00,58.6,54.5,29.97,East,79,0.0,0.0,86,0.00,CLR,,0.00,WeatherDisplay:10.37,2013-10-19 02:30:00,
2013-10-18 22:35:00,58.5,54.3,29.97,East,79,0.0,0.0,86,0.00,CLR,,0.00,WeatherDisplay:10.37,2013-10-19 02:35:00,
2013-10-18 22:40:00,58.5,54.3,29.97,East,79,0.0,0.0,86,0.00,CLR,,0.00,WeatherDisplay:10.37,2013-10-19 02:40:00,
2013-10-18 22:45:00,58.5,54.6,29.97,East,79,0.0,0.0,87,0.00,CLR,,0.00,WeatherDisplay:10.37,2013-10-19 02:45:00,
2013-10-18 22:50:00,58.5,54.6,29.97,East,79,0.0,0.0,87,0.00,CLR,,0.00,WeatherDisplay:10.37,2013-10-19 02:50:00,
2013-10-18 22:55:00,58.3,54.4,29.97,East,79,0.0,0.0,87,0.00,CLR,,0.00,WeatherDisplay:10.37,2013-10-19 02:55:00,
2013-10-18 23:00:00,58.3,54.4,29.97,East,79,0.0,0.0,87,0.00,CLR,,0.00,WeatherDisplay:10.37,2013-10-19 03:00:00,
2013-10-18 23:05:00,58.1,54.2,29.97,East,79,0.0,0.0,87,0.00,CLR,,0.00,WeatherDisplay:10.37,2013-10-19 03:05:00,
2013-10-18 23:10:00,58.1,54.2,29.97,East,79,0.0,0.0,87,0.00,CLR,,0.00,WeatherDisplay:10.37,2013-10-19 03:10:00,
2013-10-18 23:15:00,58.0,54.4,29.97,East,79,0.0,0.0,88,0.00,CLR,,0.00,WeatherDisplay:10.37,2013-10-19 03:15:00,
2013-10-18 23:20:00,57.9,54.4,29.97,East,79,0.0,0.0,88,0.00,CLR,,0.00,WeatherDisplay:10.37,2013-10-19 03:20:00,
2013-10-18 23:25:00,57.9,54.4,29.97,East,79,0.0,0.0,88,0.00,CLR,,0.00,WeatherDisplay:10.37,2013-10-19 03:25:00,
2013-10-18 23:30:00,57.7,54.2,29.97,East,79,0.0,0.0,88,0.00,CLR,,0.00,WeatherDisplay:10.37,2013-10-19 03:30:00,
2013-10-18 23:40:00,57.7,54.5,29.97,East,79,0.0,0.0,89,0.00,CLR,,0.00,WeatherDisplay:10.37,2013-10-19 03:40:00,
2013-10-18 23:45:00,57.9,54.7,29.97,East,79,0.0,0.0,89,0.00,CLR,,0.00,WeatherDisplay:10.37,2013-10-19 03:45:00,
2013-10-18 23:50:00,57.9,54.7,29.97,East,79,0.0,0.0,89,0.00,CLR,,0.00,WeatherDisplay:10.37,2013-10-19 03:50:00,
2013-10-18 23:55:00,57.9,54.7,29.97,East,79,0.0,0.0,89,0.00,CLR,,0.00,WeatherDisplay:10.37,2013-10-19 03:55:00,